createdAt,value
2022-08-25T00:01:23.456Z,12.35
2022-08-25T00:03:55.040Z,12.43
2022-08-25T00:06:23.399Z,14.35
2022-08-25T00:08:50.332Z,12.43
2022-08-25T00:11:21.717Z,12.35
2022-08-25T00:13:54.102Z,12.55
2022-08-25T00:16:22.294Z,13.40
2022-08-25T00:18:52.813Z,13.00
2022-08-25T00:21:20.024Z,14.98
2022-08-25T00:23:46.655Z,13.40
2022-08-25T00:26:15.594Z,14.43
2022-08-25T00:28:43.139Z,13.48
2022-08-25T00:31:15.209Z,12.95
2022-08-25T00:33:43.814Z,13.02
2022-08-25T00:36:14.207Z,13.82
2022-08-25T00:38:42.863Z,12.35
2022-08-25T00:41:12.237Z,12.68
2022-08-25T00:43:42.412Z,12.98
2022-08-25T00:46:10.755Z,15.65
2022-08-25T00:48:39.116Z,13.38
2022-08-25T00:51:08.274Z,15.93
2022-08-25T00:53:35.459Z,14.75
2022-08-25T00:56:02.855Z,13.43
2022-08-25T00:58:31.880Z,13.98
2022-08-25T01:01:00.124Z,15.25
2022-08-25T01:03:33.058Z,15.88
2022-08-25T01:06:04.360Z,14.02
2022-08-25T01:08:32.411Z,14.27
2022-08-25T01:11:02.457Z,15.13
2022-08-25T01:13:40.295Z,12.93
2022-08-25T01:16:07.311Z,14.20
2022-08-25T01:18:44.643Z,14.55
2022-08-25T01:21:11.423Z,14.48
2022-08-25T01:23:38.662Z,15.13
2022-08-25T01:26:11.873Z,14.43
2022-08-25T01:29:00.089Z,13.95
2022-08-25T01:31:29.324Z,14.05
2022-08-25T01:33:57.088Z,15.30
2022-08-25T01:36:24.685Z,14.25
2022-08-25T01:38:51.596Z,14.90
2022-08-25T01:41:31.872Z,14.85
2022-08-25T01:43:58.513Z,13.65
2022-08-25T01:46:25.634Z,15.20
2022-08-25T01:48:52.443Z,15.93
2022-08-25T01:51:25.686Z,16.80
2022-08-25T01:53:52.310Z,13.93
2022-08-25T01:56:19.228Z,15.25
2022-08-25T01:58:49.002Z,15.38
2022-08-25T02:01:21.431Z,15.82
2022-08-25T02:03:52.210Z,13.75
2022-08-25T02:06:28.838Z,15.32
2022-08-25T02:09:00.959Z,17.40
2022-08-25T02:11:28.503Z,15.80
2022-08-25T02:13:55.268Z,15.48
2022-08-25T02:16:25.495Z,13.07
2022-08-25T02:18:53.039Z,13.23
2022-08-25T02:21:19.729Z,14.82
2022-08-25T02:23:46.667Z,15.75
2022-08-25T02:26:16.823Z,14.40
2022-08-25T02:28:44.674Z,15.10
2022-08-25T02:31:12.236Z,14.10
2022-08-25T02:33:39.181Z,14.38
2022-08-25T02:36:07.405Z,14.88
2022-08-25T02:38:34.811Z,14.13
2022-08-25T02:41:07.736Z,15.07
2022-08-25T02:43:34.381Z,16.42
2022-08-25T02:46:01.110Z,15.40
2022-08-25T02:48:28.462Z,16.02
2022-08-25T02:50:55.388Z,16.83
2022-08-25T02:53:22.256Z,17.25
2022-08-25T02:55:48.861Z,16.75
2022-08-25T02:58:15.844Z,16.75
2022-08-25T03:00:42.573Z,17.10
2022-08-25T03:03:10.148Z,16.92
2022-08-25T03:05:36.817Z,17.08
2022-08-25T03:08:04.989Z,15.75
2022-08-25T03:10:32.164Z,16.35
2022-08-25T03:12:58.979Z,15.13
2022-08-25T03:15:27.705Z,15.50
2022-08-25T03:17:57.742Z,14.48
2022-08-25T03:20:28.009Z,14.45
2022-08-25T03:22:54.733Z,13.52
2022-08-25T03:25:40.175Z,15.15
2022-08-25T03:28:08.219Z,14.52
2022-08-25T03:30:35.290Z,14.23
2022-08-25T03:33:01.931Z,13.57
2022-08-25T03:35:28.559Z,14.93
2022-08-25T03:37:59.130Z,13.55
2022-08-25T03:40:26.851Z,14.13
2022-08-25T03:42:55.674Z,14.63
2022-08-25T03:45:23.083Z,13.02
2022-08-25T03:47:50.945Z,14.20
2022-08-25T03:50:19.988Z,15.45
2022-08-25T03:52:54.395Z,13.10
2022-08-25T03:55:23.192Z,14.70
2022-08-25T03:57:50.697Z,13.50
2022-08-25T04:00:17.890Z,14.90
2022-08-25T04:02:45.590Z,13.93
2022-08-25T04:05:12.374Z,14.07
2022-08-25T04:07:42.526Z,14.48
2022-08-25T04:10:10.721Z,14.55
2022-08-25T04:12:38.248Z,15.65
2022-08-25T04:15:07.412Z,13.75
2022-08-25T04:17:36.588Z,14.10
2022-08-25T04:20:04.113Z,14.68
2022-08-25T04:22:31.756Z,12.88
2022-08-25T04:25:05.739Z,14.15
2022-08-25T04:27:32.488Z,15.10
2022-08-25T04:29:59.171Z,15.10
2022-08-25T04:32:25.884Z,14.70
2022-08-25T04:34:52.585Z,15.35
2022-08-25T04:37:19.218Z,14.20
2022-08-25T04:39:45.993Z,16.02
2022-08-25T04:42:12.705Z,15.25
2022-08-25T04:44:39.368Z,14.63
2022-08-25T04:47:06.105Z,15.88
2022-08-25T04:49:32.977Z,12.70
2022-08-25T04:52:00.068Z,15.75
2022-08-25T04:54:29.383Z,15.23
2022-08-25T04:57:04.031Z,15.57
2022-08-25T04:59:30.839Z,13.82
2022-08-25T05:01:58.943Z,12.32
2022-08-25T05:04:28.494Z,13.60
2022-08-25T05:06:56.396Z,17.08
2022-08-25T05:09:25.245Z,14.27
2022-08-25T05:11:52.663Z,13.35
2022-08-25T05:14:25.726Z,14.50
2022-08-25T05:16:54.403Z,14.57
2022-08-25T05:19:21.142Z,14.57
2022-08-25T05:21:47.940Z,13.88
2022-08-25T05:24:14.684Z,14.80
2022-08-25T05:26:41.904Z,14.60
2022-08-25T05:29:10.893Z,15.07
2022-08-25T05:31:42.353Z,14.43
2022-08-25T05:34:10.253Z,14.88
2022-08-25T05:36:39.177Z,13.90
2022-08-25T05:39:05.912Z,14.75
2022-08-25T05:41:33.416Z,15.45
2022-08-25T05:44:00.130Z,13.80
2022-08-25T05:46:27.021Z,13.18
2022-08-25T05:48:58.851Z,14.60
2022-08-25T05:51:26.230Z,14.98
2022-08-25T05:53:52.993Z,14.15
2022-08-25T05:56:20.570Z,13.88
2022-08-25T05:58:47.456Z,14.75
2022-08-25T06:01:45.036Z,14.23
2022-08-25T06:04:15.766Z,13.80
2022-08-25T06:06:42.438Z,13.52
2022-08-25T06:09:10.175Z,11.68
2022-08-25T06:11:39.687Z,12.98
2022-08-25T06:14:07.401Z,13.00
2022-08-25T06:16:34.135Z,12.95
2022-08-25T06:19:01.212Z,11.30
2022-08-25T06:21:27.995Z,13.35
2022-08-25T06:23:54.601Z,12.23
2022-08-25T06:26:21.708Z,13.43
2022-08-25T06:28:50.129Z,12.77
2022-08-25T06:31:17.280Z,10.65
2022-08-25T06:33:44.490Z,12.02
2022-08-25T06:36:11.164Z,11.35
2022-08-25T06:38:37.782Z,12.65
2022-08-25T06:41:05.717Z,11.85
2022-08-25T06:43:33.219Z,13.25
2022-08-25T06:46:08.924Z,11.75
2022-08-25T06:48:37.309Z,11.30
2022-08-25T06:51:13.887Z,10.93
2022-08-25T06:53:41.639Z,11.00
2022-08-25T06:56:08.664Z,11.57
2022-08-25T06:58:35.779Z,11.10
2022-08-25T07:01:19.792Z,9.75
2022-08-25T07:03:47.731Z,10.65
2022-08-25T07:06:16.555Z,9.02
2022-08-25T07:08:46.277Z,11.00
2022-08-25T07:11:16.214Z,10.52
2022-08-25T07:13:45.041Z,9.95
2022-08-25T07:16:12.002Z,9.30
2022-08-25T07:18:38.654Z,8.70
2022-08-25T07:21:05.524Z,9.50
2022-08-25T07:23:36.386Z,8.68
2022-08-25T07:26:35.965Z,8.73
2022-08-25T07:29:04.312Z,7.35
2022-08-25T07:31:32.314Z,9.73
2022-08-25T07:34:17.495Z,8.70
2022-08-25T07:36:44.448Z,10.13
2022-08-25T07:39:11.408Z,9.13
2022-08-25T07:41:40.461Z,9.55
2022-08-25T07:44:09.287Z,7.35
2022-08-25T07:46:36.463Z,10.88
2022-08-25T07:49:03.360Z,8.15
2022-08-25T07:51:30.065Z,7.55
2022-08-25T07:53:56.838Z,8.15
2022-08-25T07:56:23.514Z,8.32
2022-08-25T07:58:50.455Z,8.13
2022-08-25T08:01:20.172Z,7.88
2022-08-25T08:03:51.024Z,7.35
2022-08-25T08:06:21.128Z,7.40
2022-08-25T08:08:49.820Z,6.90
2022-08-25T08:11:26.195Z,5.28
2022-08-25T08:13:54.492Z,6.93
2022-08-25T08:16:23.492Z,5.43
2022-08-25T08:18:50.531Z,6.28
2022-08-25T08:21:23.033Z,5.47
2022-08-25T08:23:54.339Z,5.68
2022-08-25T08:26:31.711Z,5.50
2022-08-25T08:29:09.138Z,6.13
2022-08-25T08:31:36.713Z,5.28
2022-08-25T08:34:03.744Z,5.43
2022-08-25T08:36:32.649Z,4.75
2022-08-25T08:39:00.301Z,5.25
2022-08-25T08:42:18.062Z,5.07
2022-08-25T08:45:09.606Z,3.90
2022-08-25T08:48:01.280Z,5.07
2022-08-25T08:50:38.941Z,5.10
2022-08-25T08:53:13.622Z,5.18
2022-08-25T08:55:46.606Z,5.18
2022-08-25T08:58:20.688Z,5.50
2022-08-25T09:03:36.769Z,4.63
2022-08-25T09:06:32.626Z,4.03
2022-08-25T09:09:03.472Z,3.67
2022-08-25T09:12:00.831Z,4.78
2022-08-25T09:14:30.930Z,4.30
2022-08-25T09:17:36.625Z,3.97
2022-08-25T09:20:19.363Z,3.95
2022-08-25T09:23:20.225Z,3.95
2022-08-25T09:26:25.797Z,4.28
2022-08-25T09:29:06.158Z,4.40
2022-08-25T09:31:42.509Z,3.90
2022-08-25T09:34:17.875Z,4.28
2022-08-25T09:36:45.769Z,4.35
2022-08-25T09:39:14.736Z,4.13
2022-08-25T09:41:42.310Z,4.35
2022-08-25T09:44:25.994Z,3.65
2022-08-25T09:47:04.748Z,3.88
2022-08-25T09:49:40.981Z,3.25
2022-08-25T09:52:25.204Z,3.92
2022-08-25T09:54:54.415Z,4.00
2022-08-25T09:57:45.090Z,4.10
2022-08-25T10:00:19.062Z,3.53
2022-08-25T10:03:05.981Z,3.70
2022-08-25T10:05:35.270Z,3.88
2022-08-25T10:08:10.127Z,4.10
2022-08-25T10:10:45.894Z,3.40
2022-08-25T10:13:32.604Z,3.65
2022-08-25T10:16:24.571Z,3.92
2022-08-25T10:19:35.811Z,3.65
2022-08-25T10:22:03.260Z,3.35
2022-08-25T10:24:29.968Z,4.72
2022-08-25T10:27:32.269Z,3.70
2022-08-25T10:30:28.193Z,4.07
2022-08-25T10:33:03.732Z,3.05
2022-08-25T10:35:59.442Z,3.88
2022-08-25T10:38:37.160Z,4.03
2022-08-25T10:41:19.603Z,3.38
2022-08-25T10:43:58.634Z,4.07
2022-08-25T10:46:52.781Z,3.95
2022-08-25T10:49:35.997Z,3.75
2022-08-25T10:52:11.482Z,3.65
2022-08-25T10:54:45.925Z,2.85
2022-08-25T10:57:35.362Z,3.80
2022-08-25T11:00:14.364Z,3.42
2022-08-25T11:03:07.370Z,3.72
2022-08-25T11:05:42.444Z,3.17
2022-08-25T11:08:30.420Z,4.18
2022-08-25T11:11:00.129Z,3.83
2022-08-25T11:13:59.029Z,4.22
2022-08-25T11:17:13.315Z,3.47
2022-08-25T11:19:45.259Z,3.80
2022-08-25T11:22:40.642Z,3.08
2022-08-25T11:27:57.505Z,3.28
2022-08-25T11:30:24.386Z,3.08
2022-08-25T11:32:54.544Z,2.85
2022-08-25T11:35:48.967Z,3.25
2022-08-25T11:38:41.221Z,3.15
2022-08-25T11:41:45.999Z,3.20
2022-08-25T11:44:51.910Z,3.08
2022-08-25T11:47:34.223Z,3.20
2022-08-25T11:50:05.083Z,2.67
2022-08-25T11:52:31.678Z,2.88
2022-08-25T11:55:13.489Z,3.00
2022-08-25T11:57:41.827Z,2.70
2022-08-25T12:00:12.973Z,2.90
2022-08-25T12:02:53.068Z,2.75
2022-08-25T12:05:23.033Z,2.80
2022-08-25T12:08:11.266Z,2.72
2022-08-25T12:10:55.052Z,2.70
2022-08-25T12:13:39.747Z,2.90
2022-08-25T12:16:08.822Z,2.65
2022-08-25T12:18:45.508Z,2.85
2022-08-25T12:21:14.339Z,2.97
2022-08-25T12:24:03.224Z,2.65
2022-08-25T12:26:56.572Z,2.75
2022-08-25T12:29:54.323Z,2.75
2022-08-25T12:32:23.685Z,2.97
2022-08-25T12:35:17.510Z,2.83
2022-08-25T12:38:42.594Z,2.83
2022-08-25T12:41:12.397Z,2.72
2022-08-25T12:44:15.731Z,3.00
2022-08-25T12:46:44.547Z,2.22
2022-08-25T12:49:37.360Z,2.80
2022-08-25T12:52:13.146Z,2.80
2022-08-25T12:54:48.660Z,2.72
2022-08-25T12:57:34.300Z,2.55
2022-08-25T13:03:11.696Z,2.67
2022-08-25T13:06:14.089Z,2.38
2022-08-25T13:09:08.528Z,3.40
2022-08-25T13:12:02.325Z,2.90
2022-08-25T13:17:07.033Z,2.60
2022-08-25T13:19:36.926Z,2.55
2022-08-25T13:22:24.732Z,2.88
2022-08-25T13:24:51.419Z,2.42
2022-08-25T13:27:24.119Z,2.10
2022-08-25T13:29:55.020Z,2.63
2022-08-25T13:32:35.607Z,2.60
2022-08-25T13:35:32.099Z,2.70
2022-08-25T13:38:19.607Z,2.60
2022-08-25T13:40:46.454Z,2.83
2022-08-25T13:43:15.070Z,3.20
2022-08-25T13:45:45.398Z,2.67
2022-08-25T13:48:22.599Z,3.10
2022-08-25T13:50:52.764Z,2.83
2022-08-25T13:53:26.837Z,2.33
2022-08-25T13:56:02.601Z,2.25
2022-08-25T13:58:45.012Z,2.58
2022-08-25T14:01:52.224Z,2.53
2022-08-25T14:04:25.897Z,2.65
2022-08-25T14:07:21.190Z,2.25
2022-08-25T14:09:48.064Z,2.70
2022-08-25T14:12:44.929Z,2.90
2022-08-25T14:15:29.468Z,2.38
2022-08-25T14:18:32.454Z,3.15
2022-08-25T14:21:02.248Z,3.67
2022-08-25T14:23:30.813Z,2.40
2022-08-25T14:25:58.385Z,2.67
2022-08-25T14:28:28.977Z,2.92
2022-08-25T14:31:01.890Z,3.00
2022-08-25T14:33:37.959Z,2.50
2022-08-25T14:36:06.024Z,2.63
2022-08-25T14:38:33.510Z,2.50
2022-08-25T14:41:00.764Z,2.28
2022-08-25T14:43:32.072Z,2.85
2022-08-25T14:46:02.441Z,2.72
2022-08-25T14:48:52.095Z,2.83
2022-08-25T14:51:18.885Z,2.65
2022-08-25T14:53:47.073Z,3.20
2022-08-25T14:56:14.240Z,2.85
2022-08-25T14:58:51.238Z,2.85
2022-08-25T15:01:28.550Z,2.53
2022-08-25T15:04:01.637Z,2.53
2022-08-25T15:06:29.236Z,2.70
2022-08-25T15:09:10.867Z,2.65
2022-08-25T15:11:43.938Z,2.88
2022-08-25T15:14:15.430Z,3.03
2022-08-25T15:16:51.893Z,2.63
2022-08-25T15:19:29.245Z,2.70
2022-08-25T15:21:58.050Z,2.70
2022-08-25T15:24:27.092Z,2.88
2022-08-25T15:26:59.989Z,3.15
2022-08-25T15:29:30.491Z,3.45
2022-08-25T15:31:58.340Z,3.30
2022-08-25T15:34:25.354Z,3.50
2022-08-25T15:36:52.133Z,4.22
2022-08-25T15:39:19.689Z,3.72
2022-08-25T15:41:52.438Z,3.90
2022-08-25T15:44:20.464Z,3.92
2022-08-25T15:46:49.993Z,4.30
2022-08-25T15:49:20.442Z,3.60
2022-08-25T15:51:50.797Z,4.20
2022-08-25T15:54:17.416Z,5.35
2022-08-25T15:56:44.435Z,6.85
2022-08-25T15:59:13.449Z,6.75
2022-08-25T16:01:41.421Z,9.63
2022-08-25T16:04:08.143Z,9.73
2022-08-25T16:06:34.827Z,8.93
2022-08-25T16:09:02.081Z,7.90
2022-08-25T16:11:30.605Z,8.55
2022-08-25T16:13:57.942Z,8.02
2022-08-25T16:16:28.899Z,6.00
2022-08-25T16:18:55.970Z,7.53
2022-08-25T16:21:29.087Z,6.35
2022-08-25T16:24:07.521Z,6.22
2022-08-25T16:26:52.138Z,6.43
2022-08-25T16:31:54.991Z,7.72
2022-08-25T16:34:22.278Z,8.77
2022-08-25T16:36:52.247Z,9.27
2022-08-25T16:39:20.015Z,10.38
2022-08-25T16:41:47.642Z,8.02
2022-08-25T16:44:14.327Z,9.02
2022-08-25T16:46:42.155Z,13.40
2022-08-25T16:49:12.516Z,11.30
2022-08-25T16:51:40.008Z,9.35
2022-08-25T16:54:27.963Z,11.77
2022-08-25T16:56:55.760Z,13.30
2022-08-25T16:59:23.671Z,13.13
2022-08-25T17:01:51.494Z,12.65
2022-08-25T17:04:18.355Z,16.23
2022-08-25T17:06:51.612Z,15.45
2022-08-25T17:09:23.046Z,14.35
2022-08-25T17:11:54.093Z,14.50
2022-08-25T17:14:21.081Z,13.25
2022-08-25T17:16:48.523Z,12.82
2022-08-25T17:19:17.347Z,15.38
2022-08-25T17:21:46.090Z,11.70
2022-08-25T17:24:14.243Z,15.27
2022-08-25T17:26:42.197Z,14.15
2022-08-25T17:29:09.357Z,12.93
2022-08-25T17:31:39.517Z,12.98
2022-08-25T17:34:12.056Z,13.80
2022-08-25T17:36:43.243Z,14.23
2022-08-25T17:39:12.979Z,15.57
2022-08-25T17:41:41.716Z,14.20
2022-08-25T17:44:08.342Z,13.48
2022-08-25T17:46:35.763Z,16.70
2022-08-25T17:49:02.940Z,15.32
2022-08-25T17:51:31.867Z,16.17
2022-08-25T17:53:59.178Z,16.08
2022-08-25T17:56:27.538Z,18.40
2022-08-25T17:58:55.744Z,14.95
2022-08-25T18:01:32.331Z,19.15
2022-08-25T18:03:59.980Z,17.17
2022-08-25T18:06:31.604Z,17.17
2022-08-25T18:09:00.168Z,17.63
2022-08-25T18:11:27.865Z,17.05
2022-08-25T18:13:55.106Z,15.07
2022-08-25T18:16:22.694Z,15.73
2022-08-25T18:18:49.688Z,17.08
2022-08-25T18:21:20.308Z,17.70
2022-08-25T18:23:47.720Z,18.38
2022-08-25T18:26:15.897Z,15.82
2022-08-25T18:28:44.004Z,16.80
2022-08-25T18:31:13.158Z,17.20
2022-08-25T18:33:45.014Z,16.77
2022-08-25T18:36:13.323Z,16.27
2022-08-25T18:39:00.009Z,16.58
2022-08-25T18:41:33.115Z,16.75
2022-08-25T18:43:59.756Z,15.70
2022-08-25T18:46:26.726Z,14.57
2022-08-25T18:48:54.403Z,12.52
2022-08-25T18:51:23.141Z,13.43
2022-08-25T18:53:58.978Z,11.38
2022-08-25T18:56:27.657Z,12.20
2022-08-25T18:58:54.255Z,11.85
2022-08-25T19:01:21.631Z,10.35
2022-08-25T19:03:49.961Z,9.43
2022-08-25T19:06:17.560Z,9.27
2022-08-25T19:08:46.195Z,6.97
2022-08-25T19:11:13.049Z,6.32
2022-08-25T19:13:40.229Z,7.78
2022-08-25T19:16:30.783Z,7.03
2022-08-25T19:18:57.520Z,7.72
2022-08-25T19:21:25.188Z,7.82
2022-08-25T19:23:53.028Z,7.22
2022-08-25T19:26:20.623Z,6.45
2022-08-25T19:28:49.412Z,6.88
2022-08-25T19:31:18.333Z,7.43
2022-08-25T19:33:46.342Z,7.07
2022-08-25T19:36:13.928Z,7.20
2022-08-25T19:38:41.191Z,7.28
2022-08-25T19:41:09.038Z,6.03
2022-08-25T19:43:41.264Z,8.25
2022-08-25T19:46:33.040Z,7.10
2022-08-25T19:49:09.017Z,6.55
2022-08-25T19:51:43.909Z,7.72
2022-08-25T19:54:13.550Z,7.53
2022-08-25T19:56:53.860Z,7.20
2022-08-25T19:59:22.250Z,8.07
2022-08-25T20:01:49.761Z,8.63
2022-08-25T20:04:16.450Z,7.38
2022-08-25T20:06:43.132Z,9.32
2022-08-25T20:09:35.623Z,7.88
2022-08-25T20:12:03.132Z,7.70
2022-08-25T20:14:29.848Z,7.43
2022-08-25T20:16:56.498Z,7.63
2022-08-25T20:19:23.112Z,7.40
2022-08-25T20:21:49.728Z,7.32
2022-08-25T20:24:35.008Z,6.70
2022-08-25T20:27:02.176Z,6.95
2022-08-25T20:29:30.692Z,7.55
2022-08-25T20:31:57.308Z,7.15
2022-08-25T20:34:24.527Z,7.07
2022-08-25T20:36:54.068Z,6.28
2022-08-25T20:39:21.729Z,6.93
2022-08-25T20:41:52.071Z,6.45
2022-08-25T20:44:19.159Z,6.95
2022-08-25T20:46:51.679Z,6.63
2022-08-25T20:49:21.394Z,7.45
2022-08-25T20:51:48.265Z,8.02
2022-08-25T20:54:18.336Z,7.90
2022-08-25T20:56:44.958Z,7.30
2022-08-25T20:59:11.843Z,6.15
2022-08-25T21:01:39.825Z,6.53
2022-08-25T21:04:09.523Z,6.07
2022-08-25T21:09:15.914Z,5.40
2022-08-25T21:11:44.258Z,4.85
2022-08-25T21:14:13.228Z,3.85
2022-08-25T21:16:41.057Z,4.43
2022-08-25T21:19:10.941Z,3.15
2022-08-25T21:21:38.436Z,2.75
2022-08-25T21:24:09.782Z,3.03
2022-08-25T21:26:37.701Z,2.60
2022-08-25T21:29:16.468Z,2.40
2022-08-25T21:31:43.268Z,2.65
2022-08-25T21:34:12.146Z,2.40
2022-08-25T21:36:39.513Z,3.10
2022-08-25T21:39:06.829Z,2.90
2022-08-25T21:41:35.489Z,2.28
2022-08-25T21:44:03.851Z,2.28
2022-08-25T21:46:33.335Z,2.97
2022-08-25T21:49:05.850Z,2.95
2022-08-25T21:51:35.873Z,2.65
2022-08-25T21:54:14.072Z,2.22
2022-08-25T21:56:50.695Z,2.45
2022-08-25T21:59:24.036Z,2.40
2022-08-25T22:02:02.840Z,2.42
2022-08-25T22:04:30.455Z,2.30
2022-08-25T22:06:59.041Z,1.98
2022-08-25T22:09:28.209Z,3.47
2022-08-25T22:11:55.654Z,2.33
2022-08-25T22:14:24.412Z,1.90
2022-08-25T22:16:53.568Z,2.15
2022-08-25T22:19:21.399Z,2.65
2022-08-25T22:21:50.363Z,2.30
2022-08-25T22:24:18.186Z,2.20
2022-08-25T22:26:47.772Z,2.05
2022-08-25T22:29:20.192Z,1.95
2022-08-25T22:31:53.055Z,1.90
2022-08-25T22:34:30.665Z,2.20
2022-08-25T22:36:59.625Z,2.25
2022-08-25T22:39:26.566Z,1.50
2022-08-25T22:41:53.183Z,2.00
2022-08-25T22:44:19.808Z,2.05
2022-08-25T22:46:46.401Z,2.17
2022-08-25T22:49:13.160Z,2.33
2022-08-25T22:51:41.066Z,1.73
2022-08-25T22:54:09.572Z,2.53
2022-08-25T22:56:37.760Z,2.65
2022-08-25T22:59:08.420Z,2.00
2022-08-25T23:01:36.384Z,2.20
2022-08-25T23:04:05.405Z,2.30
2022-08-25T23:06:34.301Z,2.42
2022-08-25T23:09:01.623Z,2.15
2022-08-25T23:11:29.004Z,1.50
2022-08-25T23:13:57.908Z,1.80
2022-08-25T23:16:25.178Z,1.83
2022-08-25T23:18:53.031Z,1.80
2022-08-25T23:21:41.213Z,1.95
2022-08-25T23:24:10.740Z,1.70
2022-08-25T23:26:41.967Z,1.92
2022-08-25T23:29:17.967Z,2.30
2022-08-25T23:31:47.526Z,1.48
2022-08-25T23:34:15.962Z,1.75
2022-08-25T23:36:43.952Z,1.70
2022-08-25T23:39:11.388Z,1.55
2022-08-25T23:41:38.459Z,1.73
2022-08-25T23:44:06.448Z,1.40
2022-08-25T23:46:36.533Z,1.70
2022-08-25T23:49:05.561Z,1.52
2022-08-25T23:51:38.257Z,1.60
2022-08-25T23:54:09.585Z,1.85
2022-08-25T23:56:44.532Z,1.55
2022-08-25T23:59:23.945Z,2.17
